Time;durP1;ratioP1;P1;durP2;ratioP2;P2;SDS_P1;SDS_P2;PMS_P1;PMS_P2;Temp;Humidity;BMP_temperature;BMP_pressure;BME280_temperature;BME280_humidity;BME280_pressure;Samples;Min_cycle;Max_cycle;Signal;HPM_P1;HPM_P2
2022/01/31 00:03:04;;;;;;;14.80;9.40;;;;;;;-2.90;79.95;96662.94;10335102;28;97016;-66
2022/01/31 00:08:08;;;;;;;13.77;8.17;;;;;;;-2.84;79.79;96657.56;10331465;28;97498;-66
2022/01/31 00:13:17;;;;;;;8.73;5.22;;;;;;;-2.90;80.13;96647.59;10335527;28;97758;-66
2022/01/31 00:18:22;;;;;;;9.18;5.05;;;;;;;-2.89;79.98;96639.88;10333591;28;96766;-66
2022/01/31 00:23:25;;;;;;;10.83;5.77;;;;;;;-2.94;79.49;96640.91;10331276;28;97289;-67
2022/01/31 00:28:28;;;;;;;18.02;10.15;;;;;;;-3.02;80.54;96625.84;10313367;28;97389;-66
2022/01/31 00:33:32;;;;;;;31.05;17.35;;;;;;;-3.08;79.80;96616.69;10327899;28;97452;-66
2022/01/31 00:38:35;;;;;;;23.02;11.65;;;;;;;-3.18;79.15;96617.91;10310008;28;97283;-66
2022/01/31 00:43:38;;;;;;;11.65;7.95;;;;;;;-3.27;80.54;96611.41;10335437;28;99073;-66
2022/01/31 00:48:45;;;;;;;17.83;9.23;;;;;;;-3.48;80.92;96610.41;10326196;28;96866;-66
2022/01/31 00:53:48;;;;;;;8.88;6.15;;;;;;;-3.51;80.66;96602.00;10316992;28;97119;-65
2022/01/31 00:58:51;;;;;;;11.50;6.80;;;;;;;-3.42;80.28;96588.94;10340416;28;97034;-65
2022/01/31 01:03:55;;;;;;;9.00;5.18;;;;;;;-3.44;80.79;96599.22;10321917;28;96919;-65
2022/01/31 01:08:58;;;;;;;8.85;5.20;;;;;;;-3.47;80.59;96589.09;10327302;28;97633;-65
2022/01/31 01:14:01;;;;;;;9.40;5.15;;;;;;;-3.45;81.33;96579.66;10316750;28;97455;-66
2022/01/31 01:19:05;;;;;;;8.32;4.88;;;;;;;-3.44;81.03;96560.91;10345218;28;99099;-66
2022/01/31 01:24:08;;;;;;;10.43;5.55;;;;;;;-3.46;79.58;96570.34;10324484;28;98319;-65
2022/01/31 01:29:11;;;;;;;10.52;6.55;;;;;;;-3.46;79.64;96566.94;10330394;28;99208;-66
2022/01/31 01:34:16;;;;;;;12.75;6.30;;;;;;;-3.48;79.42;96558.50;10316591;28;96966;-66
2022/01/31 01:39:20;;;;;;;13.32;7.63;;;;;;;-3.53;79.85;96563.78;10314067;28;96990;-66
2022/01/31 01:44:42;;;;;;;11.98;7.82;;;;;;;-3.52;80.41;96552.66;10320036;28;99135;-66
2022/01/31 01:49:47;;;;;;;18.63;9.55;;;;;;;-3.73;81.49;96523.63;10315925;28;96855;-66
2022/01/31 01:54:50;;;;;;;12.27;6.97;;;;;;;-3.80;80.61;96520.44;10337366;28;96917;-66
2022/01/31 01:59:56;;;;;;;13.23;8.50;;;;;;;-3.77;81.00;96537.38;10327689;28;97157;-66
2022/01/31 02:05:00;;;;;;;14.15;8.20;;;;;;;-3.73;80.61;96519.34;10323211;28;100887;-66
2022/01/31 02:10:04;;;;;;;11.23;7.15;;;;;;;-3.55;81.10;96532.34;10323028;28;99033;-65
2022/01/31 02:15:08;;;;;;;13.47;7.30;;;;;;;-3.45;80.26;96546.44;10327959;28;100350;-66
2022/01/31 02:20:13;;;;;;;13.13;8.50;;;;;;;-3.66;81.63;96542.09;10331136;28;103530;-66
2022/01/31 02:25:17;;;;;;;13.95;8.25;;;;;;;-3.78;81.86;96535.69;10316174;28;97936;-66
2022/01/31 02:30:20;;;;;;;13.90;7.43;;;;;;;-3.75;81.71;96572.16;10310835;28;97651;-65
2022/01/31 02:35:23;;;;;;;14.52;8.00;;;;;;;-3.51;81.11;96517.72;10332116;28;97007;-66
2022/01/31 02:40:28;;;;;;;16.42;8.57;;;;;;;-3.22;80.71;96514.97;10323960;28;96850;-66
2022/01/31 02:45:31;;;;;;;14.70;8.13;;;;;;;-3.04;80.42;96528.78;10316964;28;96949;-66
2022/01/31 02:50:34;;;;;;;13.48;7.85;;;;;;;-3.05;81.37;96534.75;10319220;28;98299;-65
2022/01/31 02:55:40;;;;;;;12.18;7.10;;;;;;;-3.04;81.88;96527.94;10321796;28;96878;-66
2022/01/31 03:00:43;;;;;;;13.13;7.38;;;;;;;-2.98;81.60;96528.53;10332394;28;96867;-67
2022/01/31 03:05:46;;;;;;;14.65;7.05;;;;;;;-2.91;82.31;96536.81;10326442;28;97743;-66
2022/01/31 03:10:50;;;;;;;14.23;7.90;;;;;;;-2.83;82.64;96560.38;10338960;28;101193;-66
2022/01/31 03:15:54;;;;;;;11.63;7.50;;;;;;;-2.67;82.01;96547.81;10341266;28;97192;-66
2022/01/31 03:20:57;;;;;;;14.30;7.78;;;;;;;-2.58;82.45;96566.25;10318430;28;99047;-66
2022/01/31 03:26:01;;;;;;;10.90;6.65;;;;;;;-2.62;83.06;96566.38;10344833;28;98780;-66
2022/01/31 03:31:04;;;;;;;11.23;6.22;;;;;;;-2.74;82.88;96548.94;10336173;28;98299;-66
2022/01/31 03:36:07;;;;;;;17.35;7.43;;;;;;;-2.68;82.78;96525.72;10333955;28;101240;-66
2022/01/31 03:41:12;;;;;;;13.65;7.60;;;;;;;-2.69;82.76;96559.00;10318090;28;97198;-66
2022/01/31 03:46:15;;;;;;;;;;;;;;;-2.77;81.88;96556.72;10336390;28;97331;-67
2022/01/31 03:51:18;;;;;;;13.05;7.80;;;;;;;-2.87;83.59;96552.84;10342915;28;96897;-66
2022/01/31 03:56:22;;;;;;;13.48;8.15;;;;;;;-2.76;82.97;96572.94;10333223;28;98601;-66
2022/01/31 04:01:26;;;;;;;18.40;9.30;;;;;;;-2.79;83.16;96573.88;10327001;28;96749;-66
2022/01/31 04:06:29;;;;;;;16.75;8.77;;;;;;;-2.63;83.09;96559.63;10340311;28;98248;-66
2022/01/31 04:11:33;;;;;;;14.68;7.40;;;;;;;-2.46;82.90;96550.44;10328453;28;97560;-66
2022/01/31 04:16:36;;;;;;;16.07;8.30;;;;;;;-2.55;83.28;96571.28;10331025;28;96912;-66
2022/01/31 04:21:39;;;;;;;17.05;8.68;;;;;;;-2.42;83.38;96557.09;10333296;28;98156;-67
2022/01/31 04:26:54;;;;;;;16.90;8.25;;;;;;;-2.43;83.41;96581.03;10322652;28;97777;-66
2022/01/31 04:31:57;;;;;;;17.42;9.07;;;;;;;-2.11;83.87;96553.31;10325464;28;97899;-65
2022/01/31 04:37:00;;;;;;;16.92;7.80;;;;;;;-1.91;83.69;96537.13;10334577;28;97705;-66
2022/01/31 04:42:06;;;;;;;15.43;7.70;;;;;;;-2.09;83.52;96570.28;10343673;28;96864;-66
2022/01/31 04:47:09;;;;;;;15.60;7.93;;;;;;;-1.92;84.11;96561.88;10327745;28;98719;-65
2022/01/31 04:52:12;;;;;;;14.05;7.57;;;;;;;-1.74;82.84;96549.19;10340199;28;97919;-66
2022/01/31 04:57:17;;;;;;;16.25;8.02;;;;;;;-1.65;83.41;96548.84;10335732;28;97322;-66
2022/01/31 05:02:19;;;;;;;15.80;8.20;;;;;;;-1.54;82.50;96548.38;10315764;28;97352;-66
2022/01/31 05:07:22;;;;;;;13.30;6.85;;;;;;;-1.56;82.87;96568.94;10330531;28;97135;-66
2022/01/31 05:12:27;;;;;;;14.75;8.15;;;;;;;-1.63;82.57;96572.66;10325476;28;96906;-65
2022/01/31 05:17:30;;;;;;;16.83;9.10;;;;;;;-1.53;83.19;96581.63;10333368;28;97622;-66
2022/01/31 05:22:33;;;;;;;17.48;8.25;;;;;;;-1.38;83.15;96562.16;10335235;28;98720;-65
2022/01/31 05:27:37;;;;;;;17.10;7.45;;;;;;;-1.24;82.91;96553.88;10337526;28;96926;-65
2022/01/31 05:32:40;;;;;;;17.13;7.97;;;;;;;-1.11;81.90;96580.66;10325316;28;96825;-65
2022/01/31 05:37:44;;;;;;;11.68;6.78;;;;;;;-1.05;82.56;96582.09;10335842;28;98298;-66
2022/01/31 05:42:48;;;;;;;14.75;7.57;;;;;;;-0.91;83.25;96535.31;10343227;28;97115;-65
2022/01/31 05:47:51;;;;;;;12.70;6.22;;;;;;;-0.63;82.28;96536.59;10327153;28;97339;-65
2022/01/31 05:52:54;;;;;;;13.13;5.95;;;;;;;-0.18;82.71;96543.00;10324766;28;98206;-65
2022/01/31 05:57:58;;;;;;;13.68;6.35;;;;;;;0.04;81.56;96556.47;10331896;28;96899;-65
2022/01/31 06:03:01;;;;;;;12.65;6.65;;;;;;;0.12;81.24;96568.94;10322573;28;97267;-66
2022/01/31 06:08:05;;;;;;;12.00;6.05;;;;;;;0.21;81.27;96565.09;10309424;28;98586;-65
2022/01/31 06:13:10;;;;;;;11.95;5.68;;;;;;;0.29;81.10;96555.28;10311048;28;98297;-66
2022/01/31 06:18:13;;;;;;;12.40;7.35;;;;;;;0.10;81.35;96554.50;10314648;28;97257;-66
2022/01/31 06:23:16;;;;;;;10.80;6.55;;;;;;;0.15;81.77;96562.81;10338557;28;98507;-66
2022/01/31 06:28:20;;;;;;;9.82;5.40;;;;;;;0.33;81.43;96549.06;10340876;28;99098;-66
2022/01/31 06:33:23;;;;;;;7.18;4.47;;;;;;;0.58;80.84;96546.09;10318755;28;96894;-66
2022/01/31 06:38:26;;;;;;;7.80;4.60;;;;;;;0.75;80.43;96550.34;10321110;28;97754;-65
2022/01/31 06:43:30;;;;;;;9.15;4.50;;;;;;;0.87;80.03;96535.19;10335798;28;99558;-66
2022/01/31 06:48:33;;;;;;;10.07;4.43;;;;;;;0.99;80.10;96516.53;10318263;28;99102;-65
2022/01/31 06:53:37;;;;;;;8.82;4.13;;;;;;;1.11;79.38;96539.03;10317694;28;97732;-65
2022/01/31 06:58:41;;;;;;;9.80;4.67;;;;;;;1.12;79.84;96545.00;10316040;28;96785;-66
2022/01/31 07:03:44;;;;;;;9.13;4.80;;;;;;;1.18;79.71;96549.81;10314916;28;97861;-65
2022/01/31 07:08:48;;;;;;;9.48;4.72;;;;;;;1.22;79.72;96550.50;10318755;28;97328;-67
2022/01/31 07:14:01;;;;;;;7.93;5.00;;;;;;;1.21;79.43;96557.38;10336443;28;98402;-65
2022/01/31 07:19:07;;;;;;;8.43;5.40;;;;;;;1.26;79.89;96562.25;10319289;28;96751;-65
2022/01/31 07:24:22;;;;;;;;;;;;;;;1.24;79.93;96564.09;10330524;28;97408;-65
2022/01/31 07:29:27;;;;;;;10.20;6.13;;;;;;;1.21;80.13;96564.25;10322632;28;98605;-66
2022/01/31 07:34:32;;;;;;;10.60;5.43;;;;;;;1.22;80.34;96574.47;10312584;28;96979;-65
2022/01/31 07:39:40;;;;;;;11.52;5.88;;;;;;;1.23;80.43;96558.13;10333714;28;96913;-65
2022/01/31 07:44:45;;;;;;;10.95;5.97;;;;;;;1.21;80.84;96539.38;10338043;28;98403;-65
2022/01/31 07:49:50;;;;;;;10.45;6.20;;;;;;;1.18;80.59;96539.53;10304124;28;96931;-65
2022/01/31 07:54:54;;;;;;;16.55;7.28;;;;;;;1.07;81.09;96532.41;10331190;28;102387;-65
2022/01/31 07:59:58;;;;;;;13.38;7.28;;;;;;;1.02;82.15;96529.22;10324056;28;97195;-65
2022/01/31 08:05:01;;;;;;;13.93;6.72;;;;;;;1.05;82.40;96529.03;10321136;28;96880;-65
2022/01/31 08:10:06;;;;;;;14.32;7.05;;;;;;;1.10;82.39;96521.91;10321309;28;98112;-67
2022/01/31 08:15:20;;;;;;;13.75;7.18;;;;;;;1.16;82.27;96520.78;10317976;28;96992;-65
2022/01/31 08:20:23;;;;;;;15.27;7.63;;;;;;;1.20;82.32;96522.25;10311621;28;96953;-65
2022/01/31 08:25:26;;;;;;;10.80;6.47;;;;;;;1.20;82.47;96518.88;10326272;28;97577;-65
2022/01/31 08:30:38;;;;;;;12.38;7.28;;;;;;;1.22;82.82;96514.47;10328728;28;99016;-66
2022/01/31 08:35:50;;;;;;;13.40;8.20;;;;;;;1.25;82.72;96506.56;10317774;28;98532;-65
2022/01/31 08:40:53;;;;;;;13.05;8.07;;;;;;;1.22;83.11;96499.84;10324992;28;98725;-65
2022/01/31 08:45:59;;;;;;;14.02;7.90;;;;;;;1.33;83.34;96476.94;10325909;28;97650;-65
2022/01/31 08:51:05;;;;;;;17.10;8.60;;;;;;;1.45;83.16;96478.00;10330652;28;99441;-65
2022/01/31 08:56:09;;;;;;;;;;;;;;;1.42;83.41;96485.03;10309242;28;101159;-65
2022/01/31 09:01:17;;;;;;;15.20;8.07;;;;;;;1.50;83.81;96477.72;10326335;28;97705;-66
2022/01/31 09:06:22;;;;;;;12.82;7.43;;;;;;;1.59;83.42;96466.91;10319284;28;97089;-65
2022/01/31 09:11:25;;;;;;;;;;;;;;;1.52;83.53;96481.03;10324119;28;97000;-63
2022/01/31 09:16:30;;;;;;;12.95;7.72;;;;;;;1.59;83.30;96479.78;10321092;28;97018;-63
2022/01/31 09:21:34;;;;;;;11.57;7.57;;;;;;;1.56;83.35;96480.78;10313920;28;98555;-63
2022/01/31 09:26:37;;;;;;;9.90;6.47;;;;;;;1.51;83.75;96474.25;10322992;28;99171;-63
2022/01/31 09:31:42;;;;;;;10.57;6.63;;;;;;;1.59;84.12;96474.66;10328791;28;97555;-64
2022/01/31 09:36:45;;;;;;;11.82;6.93;;;;;;;1.72;84.14;96470.44;10330240;28;98816;-63
2022/01/31 09:41:53;;;;;;;12.90;6.70;;;;;;;1.78;83.29;96440.91;10341949;28;98000;-63
2022/01/31 09:47:18;;;;;;;14.35;7.20;;;;;;;1.81;83.86;96439.91;10331316;28;98547;-63
2022/01/31 09:52:21;;;;;;;14.77;7.47;;;;;;;1.71;83.38;96437.88;10321536;28;98421;-63
2022/01/31 09:57:23;;;;;;;15.05;7.22;;;;;;;1.69;84.23;96416.53;10312768;28;99113;-63
2022/01/31 10:02:29;;;;;;;14.52;7.47;;;;;;;1.69;84.51;96405.41;10325770;28;97705;-63
2022/01/31 10:07:44;;;;;;;13.37;6.67;;;;;;;1.73;84.51;96407.72;10336381;28;96944;-63
2022/01/31 10:18:08;;;;;;;12.02;6.68;;;;;;;1.97;83.57;96406.34;10322946;28;97537;-65
2022/01/31 10:23:42;;;;;;;17.00;7.20;;;;;;;2.07;83.60;96379.13;10329924;28;96933;-66
2022/01/31 10:28:50;;;;;;;9.75;6.30;;;;;;;2.09;84.04;96375.56;10309938;28;97734;-66
2022/01/31 10:34:19;;;;;;;12.30;6.45;;;;;;;2.09;83.46;96354.94;10328452;28;97486;-66
2022/01/31 10:45:31;;;;;;;7.40;4.90;;;;;;;2.47;82.95;96346.56;10315911;28;96784;-69
2022/01/31 10:55:56;;;;;;;10.32;4.70;;;;;;;2.41;83.52;96371.94;10146872;28;98537;-67
2022/01/31 11:01:12;;;;;;;9.57;4.25;;;;;;;2.29;83.89;96370.94;10153026;28;97257;-66
2022/01/31 11:06:19;;;;;;;6.90;4.30;;;;;;;2.35;83.64;96372.31;10146203;28;99950;-66
2022/01/31 11:11:22;;;;;;;7.05;4.35;;;;;;;2.08;84.13;96367.91;10140593;28;98525;-65
2022/01/31 11:16:26;;;;;;;5.97;3.80;;;;;;;2.37;84.32;96339.50;10158350;28;98375;-65
2022/01/31 11:21:34;;;;;;;8.52;4.10;;;;;;;2.52;83.33;96348.88;10156820;28;97342;-65
2022/01/31 11:26:39;;;;;;;8.25;4.20;;;;;;;2.60;82.71;96331.19;10153487;28;98769;-66
2022/01/31 11:31:44;;;;;;;5.85;3.40;;;;;;;2.59;83.00;96324.34;10242684;28;97233;-65
2022/01/31 11:36:49;;;;;;;8.35;3.97;;;;;;;2.61;83.25;96337.97;10320345;28;97938;-65
2022/01/31 11:41:53;;;;;;;;;;;;;;;2.61;83.27;96327.66;10323374;28;98067;-65
2022/01/31 11:46:58;;;;;;;3.45;2.70;;;;;;;2.41;83.39;96320.38;10313781;28;98150;-66
2022/01/31 11:52:06;;;;;;;5.22;3.15;;;;;;;2.13;83.56;96328.03;10332643;28;98256;-66
2022/01/31 11:57:14;;;;;;;5.53;3.40;;;;;;;1.87;84.12;96324.47;10327415;28;98574;-65
2022/01/31 12:02:20;;;;;;;4.47;3.33;;;;;;;1.78;84.68;96317.28;10313972;28;98482;-66
2022/01/31 12:07:39;;;;;;;4.47;2.85;;;;;;;2.06;84.17;96266.66;10326140;28;97990;-65
2022/01/31 12:12:49;;;;;;;5.90;3.50;;;;;;;2.26;84.21;96263.66;10315758;28;98651;-66
2022/01/31 12:18:04;;;;;;;6.43;3.90;;;;;;;2.46;84.02;96261.59;10322913;28;98572;-66
2022/01/31 12:23:22;;;;;;;9.40;3.83;;;;;;;2.63;83.28;96274.25;10318370;28;96866;-65
2022/01/31 12:28:37;;;;;;;6.47;3.42;;;;;;;3.00;83.47;96265.88;10312397;28;98398;-66
2022/01/31 12:33:41;;;;;;;7.10;3.67;;;;;;;3.23;83.56;96230.78;10334377;28;97124;-65
2022/01/31 12:38:45;;;;;;;4.55;2.40;;;;;;;3.33;82.66;96237.00;10323344;28;96822;-66
2022/01/31 12:43:51;;;;;;;4.40;2.83;;;;;;;3.22;83.13;96213.63;10331115;28;100590;-65
2022/01/31 12:49:11;;;;;;;4.47;2.85;;;;;;;3.15;82.39;96238.22;10318828;28;96862;-66
2022/01/31 12:54:23;;;;;;;5.82;3.38;;;;;;;3.18;83.37;96199.31;10318343;28;97003;-66
2022/01/31 12:59:25;;;;;;;4.95;3.63;;;;;;;3.18;83.26;96176.06;10321414;28;97373;-65
2022/01/31 13:04:29;;;;;;;5.50;2.67;;;;;;;3.20;83.00;96189.69;10311176;28;97228;-66
2022/01/31 13:09:35;;;;;;;2.97;2.20;;;;;;;3.06;82.74;96204.34;10317855;28;97027;-66
2022/01/31 13:14:41;;;;;;;5.10;2.50;;;;;;;2.94;82.53;96233.53;10316296;28;96941;-65
2022/01/31 13:19:48;;;;;;;4.35;2.30;;;;;;;2.55;82.57;96261.00;10315383;28;96770;-66
2022/01/31 13:24:56;;;;;;;6.25;3.05;;;;;;;2.69;82.95;96234.34;10330950;28;97175;-65
2022/01/31 13:29:59;;;;;;;3.85;2.50;;;;;;;2.82;82.54;96247.25;10324832;28;96930;-66
2022/01/31 13:35:05;;;;;;;5.25;3.10;;;;;;;2.81;82.50;96256.75;10314436;28;97207;-64
2022/01/31 13:40:14;;;;;;;3.65;1.52;;;;;;;2.81;81.77;96243.03;10308892;28;98329;-66
2022/01/31 13:45:23;;;;;;;2.42;1.00;;;;;;;2.76;80.23;96237.34;10328624;28;97169;-67
2022/01/31 13:50:30;;;;;;;2.08;0.60;;;;;;;2.84;77.88;96227.31;10322645;28;97041;-65
2022/01/31 13:55:41;;;;;;;2.33;0.80;;;;;;;2.97;73.72;96204.97;10314567;28;98092;-65
2022/01/31 14:00:44;;;;;;;2.88;0.90;;;;;;;3.09;72.58;96202.50;10307644;28;97832;-67
2022/01/31 14:05:54;;;;;;;1.63;0.88;;;;;;;3.29;72.24;96217.47;10317841;28;97272;-66
2022/01/31 14:11:21;;;;;;;2.67;1.33;;;;;;;3.25;74.55;96213.44;10330121;28;96945;-64
2022/01/31 14:16:28;;;;;;;3.88;1.70;;;;;;;3.30;75.74;96206.22;10322141;28;98785;-63
2022/01/31 14:21:32;;;;;;;2.97;1.48;;;;;;;3.16;77.69;96203.75;10315110;28;96858;-64
2022/01/31 14:26:39;;;;;;;2.00;1.23;;;;;;;2.98;77.70;96234.16;10321083;28;96993;-63
2022/01/31 14:31:46;;;;;;;5.22;1.90;;;;;;;2.92;78.46;96234.59;10318191;28;97665;-64
2022/01/31 14:37:10;;;;;;;3.28;1.17;;;;;;;2.75;79.05;96251.16;10311772;28;96899;-63
2022/01/31 14:42:37;;;;;;;4.55;1.52;;;;;;;2.69;78.75;96253.22;10323320;28;98510;-63
2022/01/31 14:47:47;;;;;;;1.20;0.95;;;;;;;2.71;78.75;96255.69;10324461;28;96799;-66
2022/01/31 14:52:50;;;;;;;3.85;1.00;;;;;;;2.76;78.55;96243.31;10336278;28;98277;-63
2022/01/31 14:57:54;;;;;;;1.40;0.88;;;;;;;2.68;78.45;96236.09;10336176;28;97483;-63
2022/01/31 15:02:57;;;;;;;2.05;0.80;;;;;;;2.41;79.71;96253.34;10323439;28;97280;-63
2022/01/31 15:08:00;;;;;;;2.92;1.13;;;;;;;2.30;79.34;96235.94;10334969;28;96775;-63
2022/01/31 15:13:05;;;;;;;4.20;1.42;;;;;;;2.28;79.88;96241.19;10332830;28;96801;-63
2022/01/31 15:18:13;;;;;;;5.20;2.22;;;;;;;2.18;80.18;96245.28;10323130;28;97260;-63
2022/01/31 15:23:20;;;;;;;4.20;1.17;;;;;;;2.10;79.72;96263.81;10330521;28;97672;-63
2022/01/31 15:28:24;;;;;;;4.18;2.70;;;;;;;1.58;81.14;96258.44;10339534;28;98901;-64
2022/01/31 15:33:28;;;;;;;6.03;3.30;;;;;;;1.36;81.35;96236.53;10333115;28;98477;-63
2022/01/31 15:38:31;;;;;;;4.80;3.30;;;;;;;1.48;81.95;96243.53;10328809;28;97236;-63
2022/01/31 15:43:36;;;;;;;4.28;2.97;;;;;;;1.40;82.15;96240.59;10327767;28;96936;-64
2022/01/31 15:48:54;;;;;;;5.03;2.53;;;;;;;1.36;82.89;96259.69;10325129;28;97360;-63
2022/01/31 15:53:57;;;;;;;3.88;2.95;;;;;;;1.20;82.93;96246.09;10320044;28;97029;-63
2022/01/31 15:59:02;;;;;;;2.50;1.90;;;;;;;1.33;82.18;96241.84;10333198;28;96980;-63
2022/01/31 16:04:05;;;;;;;3.53;1.63;;;;;;;1.32;82.77;96229.91;10325864;28;96968;-63
2022/01/31 16:09:08;;;;;;;3.22;1.83;;;;;;;1.45;81.77;96217.13;10324103;28;96940;-63
2022/01/31 16:14:15;;;;;;;3.50;1.20;;;;;;;1.49;82.30;96222.00;10323314;28;97096;-64
2022/01/31 16:19:18;;;;;;;4.18;1.40;;;;;;;1.52;81.69;96241.59;10322929;28;98750;-63
2022/01/31 16:24:21;;;;;;;4.35;1.75;;;;;;;1.26;83.17;96310.06;10331112;28;98565;-63
2022/01/31 16:29:27;;;;;;;3.17;1.10;;;;;;;0.96;82.47;96337.44;10316517;28;98076;-63
2022/01/31 16:34:29;;;;;;;;;;;;;;;0.50;82.44;96305.78;10317967;28;101371;-62
2022/01/31 16:39:32;;;;;;;2.65;1.05;;;;;;;0.23;83.14;96317.44;10316400;28;99744;-64
2022/01/31 16:44:37;;;;;;;4.85;1.33;;;;;;;0.40;82.70;96321.69;10323608;28;97100;-63
2022/01/31 16:49:41;;;;;;;2.25;1.17;;;;;;;0.50;82.33;96323.75;10317099;28;96765;-63
2022/01/31 16:54:44;;;;;;;3.67;0.90;;;;;;;0.60;82.70;96342.88;10322465;28;98685;-64
2022/01/31 16:59:48;;;;;;;3.42;1.70;;;;;;;0.65;82.36;96347.78;10315500;28;96840;-63
2022/01/31 17:04:51;;;;;;;3.73;1.50;;;;;;;0.64;81.86;96344.38;10319937;28;98375;-63
2022/01/31 17:09:54;;;;;;;4.35;2.00;;;;;;;0.55;82.13;96339.72;10318331;28;97036;-63
2022/01/31 17:14:59;;;;;;;2.97;1.50;;;;;;;0.43;82.72;96341.25;10319646;28;97349;-63
2022/01/31 17:20:03;;;;;;;3.53;2.00;;;;;;;0.41;82.88;96353.34;10328287;28;97576;-63
2022/01/31 17:25:08;;;;;;;3.55;2.00;;;;;;;0.45;83.18;96349.72;10318779;28;96878;-66
2022/01/31 17:30:13;;;;;;;4.35;2.08;;;;;;;0.42;82.77;96355.00;10323012;28;98514;-66
2022/01/31 17:35:16;;;;;;;3.90;1.95;;;;;;;0.37;82.80;96372.41;10321107;28;97616;-66
2022/01/31 17:40:20;;;;;;;4.57;1.83;;;;;;;0.37;83.17;96393.78;10325563;28;97106;-63
2022/01/31 17:45:26;;;;;;;4.93;2.03;;;;;;;0.48;83.67;96402.69;10305195;28;97283;-65
2022/01/31 17:50:31;;;;;;;5.65;2.30;;;;;;;0.54;83.16;96410.06;10307472;28;99706;-63
2022/01/31 17:55:36;;;;;;;6.15;3.17;;;;;;;0.53;83.51;96428.97;10327276;28;96882;-64
2022/01/31 18:00:40;;;;;;;6.10;2.60;;;;;;;0.43;84.47;96446.63;10310731;28;98666;-63
2022/01/31 18:05:43;;;;;;;5.13;2.30;;;;;;;0.37;84.56;96468.31;10309214;28;97136;-63
2022/01/31 18:10:47;;;;;;;6.10;1.83;;;;;;;0.39;83.79;96484.50;10329959;28;97055;-63
2022/01/31 18:15:51;;;;;;;5.95;2.25;;;;;;;0.43;84.11;96473.16;10315968;28;97339;-66
2022/01/31 18:20:54;;;;;;;6.70;2.20;;;;;;;0.49;83.40;96484.03;10319308;28;98748;-64
2022/01/31 18:25:57;;;;;;;5.18;2.65;;;;;;;0.37;83.40;96476.03;10320040;28;97014;-65
2022/01/31 18:31:03;;;;;;;10.43;4.32;;;;;;;0.29;83.65;96501.31;10318820;28;97677;-63
2022/01/31 18:36:12;;;;;;;14.35;7.38;;;;;;;0.32;83.64;96478.00;10323912;28;101228;-64
2022/01/31 18:41:17;;;;;;;5.37;2.20;;;;;;;0.35;83.32;96477.84;10312564;28;100760;-63
2022/01/31 18:46:23;;;;;;;3.83;1.80;;;;;;;0.48;83.25;96479.78;10316753;28;98383;-65
2022/01/31 18:51:27;;;;;;;5.22;2.63;;;;;;;0.58;82.56;96486.09;10316343;28;98677;-63
2022/01/31 18:56:31;;;;;;;4.60;2.30;;;;;;;0.60;82.55;96499.72;10309355;28;101384;-63
2022/01/31 19:01:36;;;;;;;6.63;3.13;;;;;;;0.64;82.19;96508.94;10320046;28;103740;-64
2022/01/31 19:06:39;;;;;;;8.32;5.70;;;;;;;0.41;82.63;96502.41;10320205;28;96861;-64
2022/01/31 19:11:46;;;;;;;4.75;2.58;;;;;;;0.33;82.87;96505.38;10319801;28;96907;-64
2022/01/31 19:16:51;;;;;;;6.43;2.88;;;;;;;0.21;82.77;96518.84;10316820;28;98665;-63
2022/01/31 19:21:53;;;;;;;6.15;2.85;;;;;;;0.10;82.79;96521.13;10316948;28;96976;-63
2022/01/31 19:26:57;;;;;;;9.80;4.05;;;;;;;0.07;82.99;96540.09;10319978;28;98756;-64
2022/01/31 19:32:01;;;;;;;7.35;3.85;;;;;;;0.11;83.22;96551.03;10311370;28;98732;-63
2022/01/31 19:37:04;;;;;;;7.70;3.83;;;;;;;0.20;83.52;96566.00;10324369;28;97850;-64
2022/01/31 19:47:30;;;;;;;5.05;2.58;;;;;;;0.16;83.80;96564.50;10312649;28;98578;-63
2022/01/31 19:52:35;;;;;;;7.18;3.03;;;;;;;0.03;83.87;96565.09;10316213;28;96889;-63
2022/01/31 19:57:38;;;;;;;6.68;3.10;;;;;;;-0.05;84.09;96577.47;10309119;28;97274;-63
2022/01/31 20:02:42;;;;;;;7.05;2.30;;;;;;;-0.16;84.74;96590.00;10325592;28;98867;-63
2022/01/31 20:07:45;;;;;;;5.85;1.83;;;;;;;-0.17;84.63;96601.19;10323552;28;97974;-64
2022/01/31 20:12:47;;;;;;;2.28;1.63;;;;;;;-0.15;84.29;96592.50;10319717;28;98506;-63
2022/01/31 20:17:52;;;;;;;8.20;1.95;;;;;;;-0.14;84.08;96583.06;10313971;28;98505;-63
2022/01/31 20:22:55;;;;;;;4.18;1.40;;;;;;;-0.41;84.49;96606.56;10321748;28;97396;-63
2022/01/31 20:27:57;;;;;;;4.68;2.80;;;;;;;-0.59;84.80;96589.47;10324481;28;98305;-63
2022/01/31 20:33:03;;;;;;;6.05;1.98;;;;;;;-0.65;85.42;96588.03;10317210;28;98385;-63
2022/01/31 20:38:10;;;;;;;4.47;1.63;;;;;;;-0.59;84.64;96577.44;10323159;28;97430;-64
2022/01/31 20:43:14;;;;;;;4.78;1.98;;;;;;;-0.50;84.05;96578.75;10312838;28;97253;-64
2022/01/31 20:48:18;;;;;;;7.00;2.10;;;;;;;-0.31;82.29;96576.16;10313895;28;96936;-65
2022/01/31 20:53:21;;;;;;;5.80;1.88;;;;;;;-0.16;82.02;96569.47;10320988;28;96807;-63
2022/01/31 20:58:27;;;;;;;5.53;2.00;;;;;;;-0.05;81.75;96568.94;10327417;28;96865;-63
2022/01/31 21:03:31;;;;;;;4.85;1.95;;;;;;;0.02;81.36;96568.56;10324598;28;96773;-65
2022/01/31 21:08:36;;;;;;;6.15;2.45;;;;;;;-0.08;81.14;96562.22;10318497;28;98665;-64
2022/01/31 21:13:38;;;;;;;8.57;3.45;;;;;;;-0.24;81.48;96577.53;10312748;28;97034;-63
2022/01/31 21:18:43;;;;;;;9.50;3.70;;;;;;;-0.29;81.97;96594.88;10326868;28;100820;-63
2022/01/31 21:23:46;;;;;;;8.55;3.35;;;;;;;-0.26;82.33;96594.75;10322167;28;97613;-63
2022/01/31 21:28:49;;;;;;;21.27;11.13;;;;;;;-0.22;81.69;96621.09;10318616;28;97142;-65
2022/01/31 21:33:57;;;;;;;23.10;8.88;;;;;;;-0.22;81.41;96618.53;10321357;28;97472;-63
2022/01/31 21:39:03;;;;;;;6.82;2.75;;;;;;;-0.20;81.55;96619.28;10328835;28;96949;-64
2022/01/31 21:44:06;;;;;;;6.75;2.30;;;;;;;-0.16;81.16;96642.19;10321926;28;96799;-63
2022/01/31 21:49:11;;;;;;;7.78;2.28;;;;;;;-0.09;81.00;96649.59;10318646;28;97205;-64
2022/01/31 21:54:14;;;;;;;;;;;;;;;-0.08;80.71;96654.66;10318859;28;97296;-66
2022/01/31 21:59:17;;;;;;;4.03;1.83;;;;;;;-0.03;79.75;96668.13;10311168;28;99016;-63
2022/01/31 22:04:21;;;;;;;5.68;1.50;;;;;;;0.10;76.72;96657.25;10315408;28;96905;-64
2022/01/31 22:09:34;;;;;;;4.00;1.33;;;;;;;0.15;77.13;96657.88;10313483;28;96897;-64
2022/01/31 22:14:36;;;;;;;4.97;1.77;;;;;;;0.28;67.58;96669.25;10323194;28;97747;-63
2022/01/31 22:19:41;;;;;;;2.33;0.98;;;;;;;0.41;70.86;96657.47;10332385;28;97066;-64
2022/01/31 22:24:43;;;;;;;4.35;1.08;;;;;;;0.41;71.26;96642.03;10320870;28;98110;-64
2022/01/31 22:29:46;;;;;;;2.70;0.80;;;;;;;0.43;69.66;96665.94;10329934;28;98502;-64
2022/01/31 22:34:51;;;;;;;3.05;1.60;;;;;;;0.53;70.01;96678.31;10322731;28;97001;-63
2022/01/31 22:39:54;;;;;;;2.58;0.90;;;;;;;0.55;68.58;96694.50;10308047;28;98398;-63
2022/01/31 22:44:57;;;;;;;4.55;1.10;;;;;;;0.59;68.01;96701.16;10324023;28;97090;-63
2022/01/31 22:50:01;;;;;;;4.13;1.10;;;;;;;0.61;68.52;96707.06;10305611;28;98508;-63
2022/01/31 22:55:05;;;;;;;2.53;0.90;;;;;;;0.58;68.77;96715.78;10317732;28;97096;-63
2022/01/31 23:00:13;;;;;;;5.03;1.58;;;;;;;0.60;67.05;96742.25;10310144;28;96883;-64
2022/01/31 23:05:18;;;;;;;3.10;1.10;;;;;;;0.65;68.38;96734.28;10319621;28;96991;-63
2022/01/31 23:10:21;;;;;;;2.23;1.03;;;;;;;0.75;67.37;96735.50;10319694;28;97035;-63
2022/01/31 23:15:31;;;;;;;4.70;0.90;;;;;;;0.76;68.21;96742.31;10329045;28;97580;-63
2022/01/31 23:21:04;;;;;;;3.05;1.00;;;;;;;0.69;68.70;96728.09;10330145;28;97101;-63
2022/01/31 23:42:19;;;;;;;4.38;1.00;;;;;;;0.79;68.66;96764.47;10321618;28;97672;-63
